Time;durP1;ratioP1;P1;durP2;ratioP2;P2;SDS_P1;SDS_P2;PMS_P1;PMS_P2;Temp;Humidity;BMP_temperature;BMP_pressure;BME280_temperature;BME280_humidity;BME280_pressure;Samples;Min_cycle;Max_cycle;Signal;HPM_P1;HPM_P2
2022/06/09 00:00:22;;;;;;;;;;;;;;;13.75;100.00;95264.66;1035578;28;19914;-75
2022/06/09 00:01:03;;;;;;;;;;;;;;;13.74;100.00;95268.34;1039469;28;19999;-77
2022/06/09 00:01:39;;;;;;;;;;;;;;;13.77;100.00;95267.75;1034822;28;19972;-75
2022/06/09 00:02:09;;;;;;;;;;;;;;;13.77;100.00;95266.97;1035192;28;19917;-76
2022/06/09 00:02:40;;;;;;;;;;;;;;;13.77;100.00;95270.38;1031352;28;19914;-75
2022/06/09 00:03:31;;;;;;;;;;;;;;;13.77;100.00;95278.28;1028738;28;20439;-76
2022/06/09 00:04:02;;;;;;;;;;;;;;;13.78;100.00;95273.81;1030404;28;19910;-75
2022/06/09 00:04:35;;;;;;;;;;;;;;;13.79;100.00;95270.88;1030894;28;19910;-77
2022/06/09 00:05:05;;;;;;;;;;;;;;;13.81;100.00;95274.00;1035269;28;19917;-75
2022/06/09 00:05:36;;;;;;;;;;;;;;;13.80;100.00;95277.72;1039294;28;20878;-74
2022/06/09 00:06:09;;;;;;;;;;;;;;;13.83;100.00;95277.13;1031519;28;19913;-76
2022/06/09 00:06:41;;;;;;;;;;;;;;;13.81;100.00;95271.34;1027314;28;19945;-75
2022/06/09 00:07:15;;;;;;;;;;;;;;;13.78;100.00;95274.59;1028163;28;19910;-75
2022/06/09 00:07:45;;;;;;;;;;;;;;;13.79;100.00;95275.38;1032651;28;19914;-75
2022/06/09 00:08:15;;;;;;;;;;;;;;;13.81;100.00;95276.63;1034606;28;20008;-76
2022/06/09 00:08:47;;;;;;;;;;;;;;;13.81;100.00;95268.72;1031298;28;20295;-75
2022/06/09 00:09:17;;;;;;;;;;;;;;;13.82;100.00;95280.84;1027060;28;20388;-75
2022/06/09 00:09:49;;;;;;;;;;;;;;;13.82;100.00;95275.56;1025203;28;20021;-77
2022/06/09 00:10:24;;;;;;;;;;;;;;;13.82;100.00;95280.84;1031735;28;20421;-77
2022/06/09 00:10:56;;;;;;;;;;;;;;;13.82;100.00;95280.06;1031047;28;19936;-75
2022/06/09 00:11:26;;;;;;;;;;;;;;;13.82;100.00;95278.22;1027644;28;20284;-76
2022/06/09 00:11:56;;;;;;;;;;;;;;;13.82;100.00;95274.78;1030329;28;20283;-76
2022/06/09 00:12:27;;;;;;;;;;;;;;;13.85;100.00;95269.72;1026668;28;20292;-74
2022/06/09 00:12:58;;;;;;;;;;;;;;;13.76;100.00;95265.41;1030257;28;19910;-76
2022/06/09 00:13:28;;;;;;;;;;;;;;;13.83;100.00;95277.13;1035127;28;20012;-75
2022/06/09 00:13:58;;;;;;;;;;;;;;;13.81;100.00;95284.53;1034040;28;20000;-74
2022/06/09 00:14:29;;;;;;;;;;;;;;;13.81;100.00;95274.00;1031429;28;19910;-75
2022/06/09 00:14:59;;;;;;;;;;;;;;;13.82;100.00;95280.06;1033803;28;20044;-76
2022/06/09 00:15:30;;;;;;;;;;;;;;;13.82;100.00;95275.56;1029946;28;19906;-74
2022/06/09 00:16:01;;;;;;;;;;;;;;;13.80;100.00;95277.72;1027207;28;20467;-77
2022/06/09 00:16:31;;;;;;;;;;;;;;;13.82;100.00;95274.78;1031405;28;19913;-76
2022/06/09 00:17:01;;;;;;;;;;;;;;;13.81;100.00;95279.25;1031504;28;19917;-77
2022/06/09 00:17:31;;;;;;;;;;;;;;;13.83;100.00;95276.34;1035249;28;19917;-77
2022/06/09 00:18:02;;;;;;;;;;;;;;;13.81;100.00;95274.00;1027131;28;19977;-77
2022/06/09 00:18:32;;;;;;;;;;;;;;;13.80;100.00;95277.72;1023228;28;19910;-74
2022/06/09 00:19:03;;;;;;;;;;;;;;;13.82;100.00;95275.56;1023244;29;20012;-77
2022/06/09 00:19:33;;;;;;;;;;;;;;;13.82;100.00;95283.47;1023481;28;19965;-77
2022/06/09 00:20:04;;;;;;;;;;;;;;;13.81;100.00;95284.53;1027079;28;19968;-76
2022/06/09 00:20:37;;;;;;;;;;;;;;;13.79;100.00;95270.88;1031059;28;20178;-77
2022/06/09 00:21:07;;;;;;;;;;;;;;;13.77;100.00;95283.56;1023856;28;20372;-78
2022/06/09 00:21:38;;;;;;;;;;;;;;;13.78;100.00;95279.88;1030339;28;19941;-72
2022/06/09 00:22:08;;;;;;;;;;;;;;;13.78;100.00;95285.16;1031336;28;19973;-77
2022/06/09 00:22:39;;;;;;;;;;;;;;;13.79;100.00;95281.44;1027178;28;19910;-76
2022/06/09 00:23:10;;;;;;;;;;;;;;;13.81;100.00;95283.75;1027496;28;19926;-77
2022/06/09 00:23:40;;;;;;;;;;;;;;;13.79;100.00;95286.72;1027274;28;19997;-76
2022/06/09 00:24:11;;;;;;;;;;;;;;;13.78;100.00;95276.44;1030697;28;19914;-76
2022/06/09 00:24:41;;;;;;;;;;;;;;;13.77;100.00;95282.78;1023442;29;19907;-76
2022/06/09 00:25:11;;;;;;;;;;;;;;;13.79;100.00;95286.72;1023436;28;19907;-77
2022/06/09 00:25:42;;;;;;;;;;;;;;;13.79;100.00;95284.06;1035362;28;19905;-76
2022/06/09 00:26:12;;;;;;;;;;;;;;;13.77;100.00;95283.56;1030972;28;19918;-77
2022/06/09 00:26:43;;;;;;;;;;;;;;;13.76;100.00;95281.25;1035453;28;19918;-78
2022/06/09 00:27:13;;;;;;;;;;;;;;;13.69;100.00;95268.44;1031025;28;19916;-76
2022/06/09 00:27:43;;;;;;;;;;;;;;;13.75;100.00;95285.75;1027297;28;19913;-77
2022/06/09 00:28:14;;;;;;;;;;;;;;;13.76;100.00;95286.50;1030704;28;19921;-76
2022/06/09 00:28:44;;;;;;;;;;;;;;;13.76;100.00;95284.66;1031379;28;19920;-76
2022/06/09 00:29:14;;;;;;;;;;;;;;;13.78;100.00;95289.63;1035375;28;19913;-77
2022/06/09 00:29:44;;;;;;;;;;;;;;;13.77;100.00;95288.06;1035315;28;19909;-77
2022/06/09 00:30:16;;;;;;;;;;;;;;;13.76;100.00;95284.66;1035020;28;19921;-77
2022/06/09 00:30:46;;;;;;;;;;;;;;;13.75;100.00;95285.75;1031314;28;20160;-77
2022/06/09 00:31:17;;;;;;;;;;;;;;;13.73;100.00;95279.97;1031439;28;19941;-76
2022/06/09 00:31:48;;;;;;;;;;;;;;;13.76;100.00;95284.66;1034937;28;20005;-77
2022/06/09 00:32:18;;;;;;;;;;;;;;;13.76;100.00;95289.94;1039276;28;19913;-78
2022/06/09 00:32:48;;;;;;;;;;;;;;;13.75;100.00;95280.47;1035432;28;20712;-78
2022/06/09 00:33:19;;;;;;;;;;;;;;;13.73;100.00;95287.88;1039466;28;20015;-77
2022/06/09 00:33:49;;;;;;;;;;;;;;;13.71;100.00;95282.09;1039269;28;19914;-74
2022/06/09 00:34:19;;;;;;;;;;;;;;;13.71;100.00;95284.75;1035265;28;19905;-78
2022/06/09 00:34:50;;;;;;;;;;;;;;;13.73;100.00;95293.16;1039583;28;19909;-75
2022/06/09 00:35:21;;;;;;;;;;;;;;;13.72;100.00;95286.31;1031270;28;19910;-75
2022/06/09 00:35:51;;;;;;;;;;;;;;;13.72;100.00;95288.19;1033865;28;20326;-76
2022/06/09 00:36:21;;;;;;;;;;;;;;;13.71;100.00;95292.66;1035348;28;19910;-77
2022/06/09 00:36:52;;;;;;;;;;;;;;;13.71;100.00;95291.88;1031191;28;20399;-76
2022/06/09 00:37:22;;;;;;;;;;;;;;;13.72;100.00;95285.53;1035468;28;19921;-77
2022/06/09 00:37:52;;;;;;;;;;;;;;;13.70;100.00;95280.56;1035355;28;19913;-76
2022/06/09 00:38:23;;;;;;;;;;;;;;;13.71;100.00;95284.75;1035344;28;19914;-77
2022/06/09 00:38:54;;;;;;;;;;;;;;;13.70;100.00;95291.09;1035190;28;19968;-75
2022/06/09 00:39:24;;;;;;;;;;;;;;;13.74;100.00;95289.44;1031073;28;19906;-76
2022/06/09 00:39:55;;;;;;;;;;;;;;;13.73;100.00;95285.25;1031457;28;19914;-76
2022/06/09 00:40:26;;;;;;;;;;;;;;;13.72;100.00;95296.88;1035677;28;20485;-74
2022/06/09 00:40:57;;;;;;;;;;;;;;;13.70;100.00;95287.69;1034982;28;19909;-76
2022/06/09 00:41:27;;;;;;;;;;;;;;;13.64;100.00;95290.41;1034877;28;20354;-76
2022/06/09 00:41:58;;;;;;;;;;;;;;;13.68;100.00;95291.41;1031051;28;19910;-78
2022/06/09 00:42:29;;;;;;;;;;;;;;;13.67;100.00;95295.09;1027034;28;20175;-77
2022/06/09 00:42:59;;;;;;;;;;;;;;;13.66;100.00;95298.03;1022956;29;20276;-78
2022/06/09 00:43:30;;;;;;;;;;;;;;;13.67;100.00;95289.03;1023184;28;19906;-76
2022/06/09 00:44:33;;;;;;;;;;;;;;;13.66;100.00;95298.03;1023397;28;19907;-76
2022/06/09 00:45:22;;;;;;;;;;;;;;;13.64;100.00;95294.91;1018610;29;19938;-78
2022/06/09 00:46:10;;;;;;;;;;;;;;;13.64;100.00;95294.91;1018591;29;19937;-75
2022/06/09 00:46:41;;;;;;;;;;;;;;;13.62;100.00;95289.16;1036176;28;20333;-77
2022/06/09 00:47:17;;;;;;;;;;;;;;;13.61;100.00;95290.22;1039096;28;19905;-77
2022/06/09 00:47:47;;;;;;;;;;;;;;;13.61;100.00;95290.97;1039233;28;19971;-76
2022/06/09 00:48:30;;;;;;;;;;;;;;;13.61;100.00;95298.13;1035987;28;20205;-77
2022/06/09 00:49:01;;;;;;;;;;;;;;;13.58;100.00;95296.06;1039207;28;19906;-77
2022/06/09 00:49:33;;;;;;;;;;;;;;;13.57;100.00;95299.78;1034914;28;20311;-75
2022/06/09 00:50:04;;;;;;;;;;;;;;;13.58;100.00;95293.44;1031259;28;20359;-76
2022/06/09 00:50:35;;;;;;;;;;;;;;;13.59;100.00;95297.66;1031372;28;19960;-78
2022/06/09 00:51:13;;;;;;;;;;;;;;;13.56;100.00;95292.94;1027511;28;20539;-75
2022/06/09 00:51:45;;;;;;;;;;;;;;;13.54;100.00;95290.59;1031831;28;19956;-76
2022/06/09 00:52:16;;;;;;;;;;;;;;;13.54;100.00;95292.44;1036512;28;19905;-75
2022/06/09 00:52:51;;;;;;;;;;;;;;;13.53;100.00;95298.81;1039110;28;20363;-75
2022/06/09 00:53:22;;;;;;;;;;;;;;;13.52;100.00;95297.25;1039134;28;19910;-74
2022/06/09 00:53:54;;;;;;;;;;;;;;;13.53;100.00;95293.53;1035103;28;19968;-77
2022/06/09 00:54:31;;;;;;;;;;;;;;;13.51;100.00;95299.09;1030950;28;19906;-77
2022/06/09 00:55:03;;;;;;;;;;;;;;;13.51;100.00;95303.56;1027749;28;20403;-77
2022/06/09 00:55:34;;;;;;;;;;;;;;;13.48;100.00;95296.25;1031086;28;19949;-77
2022/06/09 00:56:04;;;;;;;;;;;;;;;13.50;100.00;95294.13;1028460;28;20379;-76
2022/06/09 00:56:35;;;;;;;;;;;;;;;13.50;100.00;95299.38;1031525;28;19910;-76
2022/06/09 00:57:06;;;;;;;;;;;;;;;13.49;100.00;95298.59;1027462;28;19914;-75
2022/06/09 00:57:37;;;;;;;;;;;;;;;13.48;100.00;95304.16;1031643;28;19957;-75
2022/06/09 00:58:08;;;;;;;;;;;;;;;13.48;100.00;95301.53;1035327;28;20291;-77
2022/06/09 00:58:39;;;;;;;;;;;;;;;13.47;100.00;95300.75;1035215;28;19913;-75
2022/06/09 00:59:11;;;;;;;;;;;;;;;13.48;100.00;95298.88;1035356;28;19910;-74
2022/06/09 00:59:41;;;;;;;;;;;;;;;13.47;100.00;95303.38;1031062;28;19914;-77
2022/06/09 01:00:16;;;;;;;;;;;;;;;13.48;100.00;95304.16;1031196;28;19910;-77
2022/06/09 01:00:49;;;;;;;;;;;;;;;13.46;100.00;95303.69;1032114;28;19972;-77
2022/06/09 01:01:19;;;;;;;;;;;;;;;13.46;100.00;95308.94;1035026;28;19913;-76
2022/06/09 01:01:49;;;;;;;;;;;;;;;13.44;100.00;95303.97;1031385;28;20072;-77
2022/06/09 01:02:20;;;;;;;;;;;;;;;13.47;100.00;95307.88;1031846;28;19910;-76
2022/06/09 01:02:50;;;;;;;;;;;;;;;13.46;100.00;95308.94;1031071;28;19914;-76
2022/06/09 01:03:23;;;;;;;;;;;;;;;13.41;100.00;95305.34;1027201;28;19906;-76
2022/06/09 01:03:55;;;;;;;;;;;;;;;13.41;100.00;95305.34;1023100;29;19910;-76
2022/06/09 01:04:25;;;;;;;;;;;;;;;13.40;100.00;95314.31;1017671;29;19911;-74
2022/06/09 01:04:56;;;;;;;;;;;;;;;13.40;100.00;95306.41;1030550;28;19906;-76
2022/06/09 01:05:26;;;;;;;;;;;;;;;13.40;100.00;95303.75;1027270;28;19906;-74
2022/06/09 01:06:07;;;;;;;;;;;;;;;13.44;100.00;95306.59;1027118;28;19950;-77
2022/06/09 01:06:51;;;;;;;;;;;;;;;13.42;100.00;95308.75;1033295;28;19909;-76
2022/06/09 01:07:30;;;;;;;;;;;;;;;13.42;100.00;95309.53;1030937;28;19906;-76
2022/06/09 01:08:02;;;;;;;;;;;;;;;13.42;100.00;95312.16;1032530;28;19932;-77
2022/06/09 01:08:32;;;;;;;;;;;;;;;13.41;100.00;95313.25;1031162;28;19913;-76
2022/06/09 01:09:08;;;;;;;;;;;;;;;13.40;100.00;95316.94;1028591;28;19997;-77
2022/06/09 01:09:38;;;;;;;;;;;;;;;13.39;100.00;95315.38;1023802;28;20376;-75
2022/06/09 01:10:09;;;;;;;;;;;;;;;13.39;100.00;95315.38;1028123;28;20183;-76
2022/06/09 01:10:39;;;;;;;;;;;;;;;13.39;100.00;95315.38;1027907;28;20291;-75
2022/06/09 01:11:12;;;;;;;;;;;;;;;13.39;100.00;95325.94;1031284;28;20028;-74
2022/06/09 01:11:42;;;;;;;;;;;;;;;13.41;100.00;95317.72;1034640;28;19905;-76
2022/06/09 01:12:39;;;;;;;;;;;;;;;13.40;100.00;95309.03;1031209;28;19914;-74
2022/06/09 01:13:09;;;;;;;;;;;;;;;13.40;100.00;95322.22;1031955;28;19910;-75
2022/06/09 01:13:40;;;;;;;;;;;;;;;13.38;100.00;95321.72;1029652;28;19945;-76
2022/06/09 01:14:13;;;;;;;;;;;;;;;13.37;100.00;95320.16;1030390;28;19906;-76
2022/06/09 01:14:43;;;;;;;;;;;;;;;13.38;100.00;95321.72;1030698;28;19914;-77
2022/06/09 01:15:14;;;;;;;;;;;;;;;13.36;100.00;95326.50;1027219;28;19906;-77
2022/06/09 01:15:45;;;;;;;;;;;;;;;13.37;100.00;95325.41;1027777;28;19974;-77
2022/06/09 01:16:18;;;;;;;;;;;;;;;13.38;100.00;95319.09;1031012;28;19906;-77
2022/06/09 01:16:57;;;;;;;;;;;;;;;13.39;100.00;95325.94;1035292;28;19910;-77
2022/06/09 01:17:40;;;;;;;;;;;;;;;13.39;100.00;95323.28;1035596;28;19910;-77
2022/06/09 01:18:19;;;;;;;;;;;;;;;13.39;100.00;95325.16;1034962;28;20025;-76
2022/06/09 01:18:59;;;;;;;;;;;;;;;13.39;100.00;95325.94;1035002;28;20047;-75
2022/06/09 01:19:48;;;;;;;;;;;;;;;13.37;100.00;95325.41;1031649;28;19921;-74
2022/06/09 01:20:28;;;;;;;;;;;;;;;13.37;100.00;95330.69;1034942;28;19906;-75
2022/06/09 01:21:02;;;;;;;;;;;;;;;13.36;100.00;95331.00;1039189;28;20110;-75
2022/06/09 01:21:41;;;;;;;;;;;;;;;13.34;100.00;95328.63;1042706;28;19923;-78
2022/06/09 01:22:11;;;;;;;;;;;;;;;13.33;100.00;95327.06;1043471;28;19908;-77
2022/06/09 01:22:55;;;;;;;;;;;;;;;13.33;100.00;95332.34;1039263;28;19909;-77
2022/06/09 01:23:31;;;;;;;;;;;;;;;13.32;100.00;95330.78;1035152;28;20390;-76
2022/06/09 01:24:11;;;;;;;;;;;;;;;13.34;100.00;95335.75;1023736;28;19949;-77
2022/06/09 01:24:44;;;;;;;;;;;;;;;13.36;100.00;95336.25;1027030;28;19910;-77
2022/06/09 01:25:33;;;;;;;;;;;;;;;13.33;100.00;95334.97;1029638;28;21134;-76
2022/06/09 01:26:15;;;;;;;;;;;;;;;13.34;100.00;95331.25;1039200;28;19976;-76
2022/06/09 01:26:48;;;;;;;;;;;;;;;13.35;100.00;95339.97;1039228;28;19905;-76
2022/06/09 01:27:21;;;;;;;;;;;;;;;13.31;100.00;95331.88;1039038;28;20411;-76
2022/06/09 01:28:04;;;;;;;;;;;;;;;13.30;100.00;95332.91;1037337;28;19905;-77
2022/06/09 01:28:43;;;;;;;;;;;;;;;13.29;100.00;95326.09;1036673;28;19983;-75
2022/06/09 01:29:16;;;;;;;;;;;;;;;13.28;100.00;95327.19;1035026;28;19909;-75
2022/06/09 01:30:06;;;;;;;;;;;;;;;13.27;100.00;95325.59;1038576;28;20010;-76
2022/06/09 01:30:36;;;;;;;;;;;;;;;13.28;100.00;95329.81;1034761;28;19905;-75
2022/06/09 01:31:16;;;;;;;;;;;;;;;13.26;100.00;95331.94;1038685;28;19905;-77
2022/06/09 01:31:46;;;;;;;;;;;;;;;13.27;100.00;95333.50;1030560;28;19958;-76
2022/06/09 01:32:21;;;;;;;;;;;;;;;13.25;100.00;95330.38;1032118;28;20020;-76
2022/06/09 01:32:51;;;;;;;;;;;;;;;13.24;100.00;95331.44;1030951;28;19914;-75
2022/06/09 01:33:24;;;;;;;;;;;;;;;13.23;100.00;95337.75;1028407;28;20443;-77
2022/06/09 01:34:05;;;;;;;;;;;;;;;13.23;100.00;95329.84;1034931;28;19921;-77
2022/06/09 01:34:35;;;;;;;;;;;;;;;13.23;100.00;95332.50;1033043;28;19910;-73
2022/06/09 01:35:23;;;;;;;;;;;;;;;13.20;100.00;95333.06;1032869;28;19941;-74
2022/06/09 01:35:54;;;;;;;;;;;;;;;13.18;100.00;95337.84;1031012;28;19917;-76
2022/06/09 01:36:47;;;;;;;;;;;;;;;13.17;100.00;95333.63;1025718;28;19907;-77
2022/06/09 01:37:29;;;;;;;;;;;;;;;13.17;100.00;95334.41;1019042;28;19918;-76
2022/06/09 01:37:59;;;;;;;;;;;;;;;13.14;100.00;95332.34;1032136;28;20407;-76
2022/06/09 01:38:30;;;;;;;;;;;;;;;13.15;100.00;95335.78;1039473;28;19961;-75
2022/06/09 01:39:03;;;;;;;;;;;;;;;13.14;100.00;95331.56;1034911;28;19993;-76
2022/06/09 01:39:52;;;;;;;;;;;;;;;13.10;100.00;95331.38;1035655;28;19940;-75
2022/06/09 01:40:22;;;;;;;;;;;;;;;13.10;100.00;95331.38;1039378;28;19905;-74
2022/06/09 01:40:52;;;;;;;;;;;;;;;13.08;100.00;95330.91;1032019;28;20704;-75
2022/06/09 01:41:23;;;;;;;;;;;;;;;13.06;100.00;95333.03;1031043;28;19918;-76
2022/06/09 01:41:53;;;;;;;;;;;;;;;13.03;100.00;95325.69;1034065;28;19913;-76
2022/06/09 01:42:29;;;;;;;;;;;;;;;13.03;100.00;95333.59;1035109;28;19906;-75
2022/06/09 01:43:00;;;;;;;;;;;;;;;12.98;100.00;95329.19;1039273;28;19905;-75
2022/06/09 01:43:31;;;;;;;;;;;;;;;12.98;100.00;95331.06;1039412;28;19909;-77
2022/06/09 01:44:01;;;;;;;;;;;;;;;12.98;100.00;95337.09;1037776;28;19908;-75
2022/06/09 01:44:31;;;;;;;;;;;;;;;12.94;100.00;95335.31;1032897;28;19917;-76
2022/06/09 01:45:07;;;;;;;;;;;;;;;12.94;100.00;95341.38;1038239;28;19917;-74
2022/06/09 01:45:37;;;;;;;;;;;;;;;12.91;100.00;95334.06;1034247;28;20000;-76
2022/06/09 01:46:08;;;;;;;;;;;;;;;12.90;100.00;95335.09;1032452;28;19914;-74
2022/06/09 01:46:39;;;;;;;;;;;;;;;12.79;100.00;95315.28;1031250;28;20278;-77
2022/06/09 01:47:09;;;;;;;;;;;;;;;12.89;100.00;95341.44;1027156;28;19914;-74
2022/06/09 01:47:48;;;;;;;;;;;;;;;12.87;100.00;95333.03;1026984;28;19914;-76
2022/06/09 01:48:19;;;;;;;;;;;;;;;12.86;100.00;95339.38;1029697;28;19915;-76
2022/06/09 01:48:51;;;;;;;;;;;;;;;12.88;100.00;95336.47;1031205;28;19914;-76
2022/06/09 01:49:23;;;;;;;;;;;;;;;12.85;100.00;95337.06;1030756;28;19914;-74
2022/06/09 01:49:54;;;;;;;;;;;;;;;12.80;100.00;95332.63;1027413;28;20096;-77
2022/06/09 01:50:28;;;;;;;;;;;;;;;12.80;100.00;95335.25;1024406;28;19977;-75
2022/06/09 01:51:00;;;;;;;;;;;;;;;12.78;100.00;95337.41;1027855;28;19914;-75
2022/06/09 01:51:31;;;;;;;;;;;;;;;12.77;100.00;95340.31;1027074;28;19914;-77
2022/06/09 01:52:02;;;;;;;;;;;;;;;12.78;100.00;95340.03;1027101;28;19914;-75
2022/06/09 01:52:32;;;;;;;;;;;;;;;12.75;100.00;95340.63;1027539;28;19949;-77
2022/06/09 01:53:05;;;;;;;;;;;;;;;12.74;100.00;95337.19;1027183;28;20580;-74
2022/06/09 01:53:43;;;;;;;;;;;;;;;12.76;100.00;95342.16;1023125;28;19917;-76
2022/06/09 01:54:15;;;;;;;;;;;;;;;12.76;100.00;95339.53;1023112;29;19918;-75
2022/06/09 01:54:45;;;;;;;;;;;;;;;12.74;100.00;95337.19;1027165;28;20006;-74
2022/06/09 01:55:16;;;;;;;;;;;;;;;12.75;100.00;95335.34;1025070;28;20400;-75
2022/06/09 01:55:48;;;;;;;;;;;;;;;12.77;100.00;95333.19;1026965;28;20326;-77
2022/06/09 01:56:24;;;;;;;;;;;;;;;12.76;100.00;95333.50;1021857;29;19919;-77
2022/06/09 01:57:02;;;;;;;;;;;;;;;12.74;100.00;95331.13;1024810;28;19915;-76
2022/06/09 01:57:35;;;;;;;;;;;;;;;12.76;100.00;95333.50;1023758;29;19910;-77
2022/06/09 01:58:05;;;;;;;;;;;;;;;12.73;100.00;95337.47;1022953;28;19919;-78
2022/06/09 01:58:38;;;;;;;;;;;;;;;12.72;100.00;95328.03;1023431;29;19915;-75
2022/06/09 01:59:27;;;;;;;;;;;;;;;12.69;100.00;95336.47;1024809;28;19918;-75
2022/06/09 01:59:59;;;;;;;;;;;;;;;12.68;100.00;95332.28;1040246;28;19923;-78
2022/06/09 02:00:29;;;;;;;;;;;;;;;12.66;100.00;95329.94;1035740;28;19913;-77
2022/06/09 02:00:59;;;;;;;;;;;;;;;12.64;100.00;95337.34;1031589;28;19918;-78
2022/06/09 02:01:34;;;;;;;;;;;;;;;12.64;100.00;95328.66;1030797;28;20383;-76
2022/06/09 02:02:16;;;;;;;;;;;;;;;12.64;100.00;95331.28;1031408;28;19918;-77
2022/06/09 02:02:48;;;;;;;;;;;;;;;12.67;100.00;95334.13;1027513;28;19922;-74
2022/06/09 02:03:20;;;;;;;;;;;;;;;12.67;100.00;95335.97;1019830;29;20041;-77
2022/06/09 02:03:51;;;;;;;;;;;;;;;12.64;100.00;95334.72;1029275;28;19954;-78
2022/06/09 02:04:22;;;;;;;;;;;;;;;12.65;100.00;95330.22;1027612;28;19940;-76
2022/06/09 02:04:53;;;;;;;;;;;;;;;12.65;100.00;95341.53;1031126;28;19914;-75
2022/06/09 02:05:26;;;;;;;;;;;;;;;12.63;100.00;95329.72;1031935;28;19917;-75
2022/06/09 02:05:58;;;;;;;;;;;;;;;12.62;100.00;95326.31;1031840;28;19921;-77
2022/06/09 02:06:28;;;;;;;;;;;;;;;12.62;100.00;95326.31;1027236;28;19932;-77
2022/06/09 02:06:58;;;;;;;;;;;;;;;12.62;100.00;95330.78;1027958;28;20279;-77
2022/06/09 02:07:30;;;;;;;;;;;;;;;12.61;100.00;95330.03;1031782;28;20363;-78
2022/06/09 02:08:00;;;;;;;;;;;;;;;12.60;100.00;95333.69;1027385;28;20304;-76
2022/06/09 02:08:31;;;;;;;;;;;;;;;12.61;100.00;95337.09;1027435;28;19914;-77
2022/06/09 02:09:03;;;;;;;;;;;;;;;12.61;100.00;95331.84;1019737;29;20178;-77
2022/06/09 02:09:33;;;;;;;;;;;;;;;12.62;100.00;95325.53;1027677;28;20338;-73
2022/06/09 02:10:10;;;;;;;;;;;;;;;12.60;100.00;95328.44;1031785;28;19925;-75
2022/06/09 02:10:47;;;;;;;;;;;;;;;12.60;100.00;95332.91;1032649;28;20430;-77
2022/06/09 02:11:18;;;;;;;;;;;;;;;12.59;100.00;95328.72;1037681;28;20445;-77
2022/06/09 02:11:50;;;;;;;;;;;;;;;12.58;100.00;95333.22;1035090;28;20028;-74
2022/06/09 02:12:22;;;;;;;;;;;;;;;12.56;100.00;95334.56;1035513;28;20001;-75
2022/06/09 02:12:52;;;;;;;;;;;;;;;12.54;100.00;95323.53;1035937;28;19948;-75
2022/06/09 02:13:33;;;;;;;;;;;;;;;12.54;100.00;95328.78;1027877;28;19968;-77
2022/06/09 02:14:04;;;;;;;;;;;;;;;12.52;100.00;95333.56;1026641;28;19926;-77
2022/06/09 02:14:35;;;;;;;;;;;;;;;12.54;100.00;95326.97;1027179;28;19914;-77
2022/06/09 02:15:08;;;;;;;;;;;;;;;12.53;100.00;95335.13;1027269;28;19914;-75
2022/06/09 02:15:41;;;;;;;;;;;;;;;12.52;100.00;95334.34;1023949;28;19922;-75
2022/06/09 02:16:13;;;;;;;;;;;;;;;12.50;100.00;95326.72;1020165;29;19915;-77
2022/06/09 02:16:43;;;;;;;;;;;;;;;12.52;100.00;95328.31;1022262;28;19984;-78
2022/06/09 02:17:13;;;;;;;;;;;;;;;12.50;100.00;95337.25;1034697;28;19929;-75
2022/06/09 02:17:45;;;;;;;;;;;;;;;12.49;100.00;95327.81;1027817;28;20065;-78
2022/06/09 02:18:19;;;;;;;;;;;;;;;12.50;100.00;95329.34;1031832;28;19917;-77
2022/06/09 02:18:51;;;;;;;;;;;;;;;12.50;100.00;95332.00;1030404;28;19918;-77
2022/06/09 02:19:22;;;;;;;;;;;;;;;12.51;100.00;95332.78;1033289;28;19980;-77
2022/06/09 02:19:52;;;;;;;;;;;;;;;12.47;100.00;95335.22;1036247;28;19913;-78
2022/06/09 02:20:23;;;;;;;;;;;;;;;12.48;100.00;95328.09;1032579;28;19913;-76
2022/06/09 02:21:05;;;;;;;;;;;;;;;12.46;100.00;95328.38;1024334;28;20498;-78
2022/06/09 02:21:35;;;;;;;;;;;;;;;12.48;100.00;95338.63;1019496;29;20303;-76
2022/06/09 02:22:06;;;;;;;;;;;;;;;12.50;100.00;95334.63;1025236;28;19914;-77
2022/06/09 02:22:36;;;;;;;;;;;;;;;12.50;100.00;95326.72;1028335;28;19918;-77
2022/06/09 02:23:07;;;;;;;;;;;;;;;12.50;100.00;95332.00;1028243;28;19957;-75
2022/06/09 02:23:37;;;;;;;;;;;;;;;12.49;100.00;95330.44;1032099;28;19920;-76
2022/06/09 02:24:07;;;;;;;;;;;;;;;12.50;100.00;95332.00;1032250;28;20375;-75
2022/06/09 02:24:38;;;;;;;;;;;;;;;12.54;100.00;95326.97;1036297;28;20024;-76
2022/06/09 02:25:08;;;;;;;;;;;;;;;12.55;100.00;95330.38;1032209;28;20020;-75
2022/06/09 02:25:38;;;;;;;;;;;;;;;12.56;100.00;95329.31;1032021;28;20485;-75
2022/06/09 02:26:09;;;;;;;;;;;;;;;12.54;100.00;95321.69;1036346;28;20024;-76
2022/06/09 02:26:39;;;;;;;;;;;;;;;12.54;100.00;95331.41;1032215;28;20401;-75
2022/06/09 02:27:10;;;;;;;;;;;;;;;12.55;100.00;95336.41;1031731;28;19922;-75
2022/06/09 02:27:40;;;;;;;;;;;;;;;12.56;100.00;95331.94;1028319;28;20328;-77
2022/06/09 02:28:10;;;;;;;;;;;;;;;12.57;100.00;95325.59;1028436;28;19922;-76
2022/06/09 02:28:41;;;;;;;;;;;;;;;12.55;100.00;95330.38;1032427;28;19952;-75
2022/06/09 02:29:11;;;;;;;;;;;;;;;12.54;100.00;95331.41;1036100;28;19969;-76
2022/06/09 02:29:41;;;;;;;;;;;;;;;12.53;100.00;95328.00;1040831;28;20412;-77
2022/06/09 02:30:12;;;;;;;;;;;;;;;12.53;100.00;95329.88;1044397;28;19921;-78
2022/06/09 02:30:42;;;;;;;;;;;;;;;12.52;100.00;95333.56;1040487;28;19925;-77
2022/06/09 02:31:12;;;;;;;;;;;;;;;12.53;100.00;95335.13;1040130;28;19916;-77
2022/06/09 02:31:47;;;;;;;;;;;;;;;12.52;100.00;95328.31;1039672;28;19946;-75
2022/06/09 02:32:17;;;;;;;;;;;;;;;12.49;100.00;95330.44;1036147;28;19914;-75
2022/06/09 02:32:48;;;;;;;;;;;;;;;12.48;100.00;95328.88;1036399;28;19921;-78
2022/06/09 02:33:19;;;;;;;;;;;;;;;12.49;100.00;95330.44;1036164;28;19913;-77
2022/06/09 02:33:49;;;;;;;;;;;;;;;12.48;100.00;95336.78;1040474;28;20012;-74
2022/06/09 02:34:19;;;;;;;;;;;;;;;12.50;100.00;95336.47;1032247;28;20363;-76
2022/06/09 02:34:50;;;;;;;;;;;;;;;12.50;100.00;95331.22;1032400;28;20405;-75
2022/06/09 02:35:20;;;;;;;;;;;;;;;12.50;100.00;95339.88;1028350;28;19941;-78
2022/06/09 02:35:51;;;;;;;;;;;;;;;12.49;100.00;95340.97;1026794;28;19926;-77
2022/06/09 02:36:21;;;;;;;;;;;;;;;12.50;100.00;95337.25;1040603;28;19920;-77
2022/06/09 02:36:51;;;;;;;;;;;;;;;12.50;100.00;95332.00;1036415;28;19988;-76
2022/06/09 02:37:22;;;;;;;;;;;;;;;12.51;100.00;95338.06;1036148;28;19941;-77
2022/06/09 02:37:52;;;;;;;;;;;;;;;12.50;100.00;95334.63;1036415;28;20331;-78
2022/06/09 02:38:23;;;;;;;;;;;;;;;12.51;100.00;95338.06;1032383;28;19910;-75
2022/06/09 02:38:53;;;;;;;;;;;;;;;12.51;100.00;95335.44;1040487;28;19916;-75
2022/06/09 02:39:23;;;;;;;;;;;;;;;12.50;100.00;95337.25;1044290;28;19995;-77
2022/06/09 02:39:54;;;;;;;;;;;;;;;12.50;100.00;95334.63;1044641;28;19915;-76
2022/06/09 02:40:24;;;;;;;;;;;;;;;12.50;100.00;95333.84;1044930;28;19909;-78
2022/06/09 02:40:54;;;;;;;;;;;;;;;12.50;100.00;95331.22;1040121;28;19956;-78
2022/06/09 02:41:25;;;;;;;;;;;;;;;12.51;100.00;95338.06;1035826;28;19905;-73
2022/06/09 02:41:55;;;;;;;;;;;;;;;12.49;100.00;95338.31;1036391;28;20441;-74
2022/06/09 02:42:25;;;;;;;;;;;;;;;12.49;100.00;95335.69;1032450;28;20364;-75
2022/06/09 02:42:56;;;;;;;;;;;;;;;12.49;100.00;95334.91;1032326;28;19910;-76
2022/06/09 02:43:26;;;;;;;;;;;;;;;12.48;100.00;95336.78;1032188;28;19902;-76
2022/06/09 02:43:56;;;;;;;;;;;;;;;12.46;100.00;95336.25;1036250;28;20335;-76
2022/06/09 02:44:30;;;;;;;;;;;;;;;12.47;100.00;95337.84;1032781;28;19941;-76
2022/06/09 02:45:03;;;;;;;;;;;;;;;12.47;100.00;95327.31;1033197;28;20324;-77
2022/06/09 02:45:33;;;;;;;;;;;;;;;12.52;100.00;95338.84;1032233;28;19957;-75
2022/06/09 02:46:04;;;;;;;;;;;;;;;12.50;100.00;95337.25;1024747;28;19938;-75
2022/06/09 02:46:34;;;;;;;;;;;;;;;12.48;100.00;95331.50;1029185;28;19914;-76
2022/06/09 02:47:04;;;;;;;;;;;;;;;12.49;100.00;95334.91;1032385;28;19906;-77
2022/06/09 02:47:35;;;;;;;;;;;;;;;12.48;100.00;95330.72;1032043;28;19910;-76
2022/06/09 02:48:05;;;;;;;;;;;;;;;12.47;100.00;95337.84;1032298;28;19945;-75